Bookmark and Share
Track history (hours):
 

Al Rawdah

Last reported at 2014-Apr-23 18:31 UTC. Time now 2014-Apr-23 19:03 UTC.
Position N 44°21' E 009°03'.

Length 307 m; draft 11.8 m.

Type: Ship (hazmat cat A). MMSI: 538004160.

NotesDate/timePositionNaut miles runAvg speedWind from/ knotsBaromVisibWave heightAir tempDewpointWater temp
2014-Apr-23 18:31N 44°21' E 009°03'0 0.1
2014-Apr-23 17:28N 44°21' E 009°03'0 0.0
2014-Apr-23 16:31N 44°21' E 009°03'0 0.1
2014-Apr-23 15:31N 44°21' E 009°03'0 0.1
2014-Apr-23 14:31N 44°21' E 009°03'0 0.1
2014-Apr-23 13:28N 44°21' E 009°03'0 0.2
2014-Apr-23 12:33N 44°21' E 009°03'3 3.4
2014-Apr-23 11:33N 44°18' E 009°05'7 7.2
2014-Apr-23 10:33N 44°11' E 009°10'7 7.1
2014-Apr-23 09:33N 44°06' E 009°18'7 7.0
2014-Apr-23 08:34N 44°01' E 009°24'7 6.9
2014-Apr-23 07:34N 43°57' E 009°31'6 5.8
2014-Apr-23 06:33N 43°55' E 009°39'7 7.3
2014-Apr-23 05:34N 43°59' E 009°48'8 8.0
2014-Apr-23 04:34N 44°06' E 009°51'0 0.1
2014-Apr-23 03:33N 44°06' E 009°51'0 0.0
2014-Apr-23 02:33N 44°06' E 009°51'0 0.0
2014-Apr-23 01:33N 44°06' E 009°51'0 0.0
2014-Apr-23 00:33N 44°06' E 009°51'0 0.0
2014-Apr-22 23:33N 44°06' E 009°51'0 0.0
2014-Apr-22 22:33N 44°06' E 009°51'0 0.0
2014-Apr-22 21:33N 44°06' E 009°51'0 0.0
2014-Apr-22 20:33N 44°06' E 009°51'0 0.0
2014-Apr-22 19:33N 44°06' E 009°51'0 0.0
2014-Apr-22 18:33N 44°06' E 009°51'0 0.0
2014-Apr-22 17:33N 44°06' E 009°51'0 0.0
2014-Apr-22 16:30N 44°06' E 009°51'0 0.0
2014-Apr-22 15:33N 44°06' E 009°51'0 0.0
2014-Apr-22 14:33N 44°06' E 009°51'0 0.0
2014-Apr-22 13:30N 44°06' E 009°51'0 0.0
2014-Apr-22 12:33N 44°06' E 009°51'0 0.0
2014-Apr-22 11:33N 44°06' E 009°51'0 0.0
2014-Apr-22 10:30N 44°06' E 009°51'0 0.0
2014-Apr-22 09:33N 44°06' E 009°51'0 0.0
2014-Apr-22 08:30N 44°06' E 009°51'0 0.0
2014-Apr-22 07:33N 44°06' E 009°51'0 0.0
2014-Apr-22 06:33N 44°06' E 009°51'0 0.0
2014-Apr-22 05:30N 44°06' E 009°51'0 0.0
2014-Apr-22 04:33N 44°06' E 009°51'0 0.0
2014-Apr-22 03:33N 44°06' E 009°51'0 0.0
2014-Apr-22 02:33N 44°06' E 009°51'2 2.4
2014-Apr-22 01:33N 44°04' E 009°51'5 4.9
2014-Apr-22 00:33N 44°01' E 009°56'2 1.7
2014-Apr-21 23:33N 43°59' E 009°57'3 2.8
2014-Apr-21 22:34N 43°56' E 009°58'2 2.5
2014-Apr-21 21:34N 43°54' E 009°56'1514.8
2014-Apr-21 20:34N 43°43' E 009°43'1312.8
2014-Apr-21 19:33N 43°31' E 009°39'1313.4
2014-Apr-21 18:33N 43°17' E 009°39'1313.4
2014-Apr-21 17:33N 43°04' E 009°38'2813.7
2014-Apr-21 15:29N 42°36' E 009°48'4713.8
2014-Apr-21 12:07N 41°59' E 010°26'12416.5
2014-Apr-21 04:33N 40°39' E 012°33'1717.0
2014-Apr-21 03:32N 40°28' E 012°50'3316.8
2014-Apr-21 01:33N 40°07' E 013°24'1817.0
2014-Apr-21 00:28N 39°55' E 013°43'3817.0
2014-Apr-20 22:16N 39°31' E 014°20'1217.3
2014-Apr-20 21:34N 39°23' E 014°32'1817.5
2014-Apr-20 20:33N 39°12' E 014°49'5517.0
2014-Apr-20 17:19N 38°29' E 015°34'1613.0
2014-Apr-20 16:05N 38°13' E 015°37'612.2
2014-Apr-20 15:33N 38°07' E 015°36'  
2014-Apr-18 06:33N 31°17' E 032°22'4 1.7
2014-Apr-18 04:04N 31°13' E 032°21'0 0.0
2014-Apr-18 03:31N 31°13' E 032°21'0 0.0
2014-Apr-18 02:10N 31°13' E 032°21'0 0.0
2014-Apr-18 01:07N 31°13' E 032°21'0 0.0
2014-Apr-18 00:31N 31°13' E 032°21'0 0.0
2014-Apr-17 23:25N 31°13' E 032°21'0 0.0
2014-Apr-17 22:31N 31°13' E 032°21'0 0.0
2014-Apr-17 21:10N 31°13' E 032°21'  

Dump ship's entire track history

sailing weather and tide predictions

Al Rawdah — V7VM8 — position and weather